sensor_id;sensor_type;location;lat;lon;timestamp;P1;durP1;ratioP1;P2;durP2;ratioP2
6564;SDS011;3316;44.118;27.258;2023-02-15T00:01:34;40.13;;;20.50;;
6564;SDS011;3316;44.118;27.258;2023-02-15T00:04:00;45.10;;;20.10;;
6564;SDS011;3316;44.118;27.258;2023-02-15T00:06:26;44.23;;;20.50;;
6564;SDS011;3316;44.118;27.258;2023-02-15T00:08:51;39.83;;;18.67;;
6564;SDS011;3316;44.118;27.258;2023-02-15T00:11:18;36.40;;;17.90;;
6564;SDS011;3316;44.118;27.258;2023-02-15T00:16:57;36.40;;;18.37;;
6564;SDS011;3316;44.118;27.258;2023-02-15T00:19:24;33.27;;;18.23;;
6564;SDS011;3316;44.118;27.258;2023-02-15T00:21:50;31.47;;;16.90;;
6564;SDS011;3316;44.118;27.258;2023-02-15T00:24:16;33.20;;;18.60;;
6564;SDS011;3316;44.118;27.258;2023-02-15T00:26:43;32.47;;;18.77;;
6564;SDS011;3316;44.118;27.258;2023-02-15T00:29:10;32.60;;;17.23;;
6564;SDS011;3316;44.118;27.258;2023-02-15T00:31:36;32.33;;;17.13;;
6564;SDS011;3316;44.118;27.258;2023-02-15T00:34:45;27.97;;;14.77;;
6564;SDS011;3316;44.118;27.258;2023-02-15T00:36:52;30.40;;;14.83;;
6564;SDS011;3316;44.118;27.258;2023-02-15T00:39:18;30.13;;;14.67;;
6564;SDS011;3316;44.118;27.258;2023-02-15T00:41:44;26.67;;;14.13;;
6564;SDS011;3316;44.118;27.258;2023-02-15T00:44:10;27.70;;;13.93;;
6564;SDS011;3316;44.118;27.258;2023-02-15T00:46:37;22.87;;;13.53;;
6564;SDS011;3316;44.118;27.258;2023-02-15T00:49:02;29.37;;;14.93;;
6564;SDS011;3316;44.118;27.258;2023-02-15T00:51:28;31.10;;;16.07;;
6564;SDS011;3316;44.118;27.258;2023-02-15T00:53:54;25.80;;;14.20;;
6564;SDS011;3316;44.118;27.258;2023-02-15T00:56:19;26.33;;;13.00;;
6564;SDS011;3316;44.118;27.258;2023-02-15T00:58:45;24.97;;;13.80;;
6564;SDS011;3316;44.118;27.258;2023-02-15T01:01:12;26.50;;;13.80;;
6564;SDS011;3316;44.118;27.258;2023-02-15T01:03:40;20.13;;;11.63;;
6564;SDS011;3316;44.118;27.258;2023-02-15T01:06:10;25.50;;;13.00;;
6564;SDS011;3316;44.118;27.258;2023-02-15T01:08:35;26.23;;;12.60;;
6564;SDS011;3316;44.118;27.258;2023-02-15T01:11:03;23.33;;;13.33;;
6564;SDS011;3316;44.118;27.258;2023-02-15T01:13:29;22.73;;;13.73;;
6564;SDS011;3316;44.118;27.258;2023-02-15T01:15:55;25.27;;;14.47;;
6564;SDS011;3316;44.118;27.258;2023-02-15T01:18:21;25.80;;;13.90;;
6564;SDS011;3316;44.118;27.258;2023-02-15T01:20:47;26.83;;;13.90;;
6564;SDS011;3316;44.118;27.258;2023-02-15T01:23:13;26.97;;;13.70;;
6564;SDS011;3316;44.118;27.258;2023-02-15T01:25:38;26.47;;;13.87;;
6564;SDS011;3316;44.118;27.258;2023-02-15T01:28:04;29.53;;;14.80;;
6564;SDS011;3316;44.118;27.258;2023-02-15T01:30:30;25.63;;;12.87;;
6564;SDS011;3316;44.118;27.258;2023-02-15T01:32:56;24.20;;;12.73;;
6564;SDS011;3316;44.118;27.258;2023-02-15T01:35:22;26.93;;;13.27;;
6564;SDS011;3316;44.118;27.258;2023-02-15T01:37:47;23.63;;;12.30;;
6564;SDS011;3316;44.118;27.258;2023-02-15T01:40:14;23.13;;;12.20;;
6564;SDS011;3316;44.118;27.258;2023-02-15T01:42:41;23.70;;;12.73;;
6564;SDS011;3316;44.118;27.258;2023-02-15T01:50:54;28.87;;;14.90;;
6564;SDS011;3316;44.118;27.258;2023-02-15T01:53:24;23.47;;;13.47;;
6564;SDS011;3316;44.118;27.258;2023-02-15T01:55:54;28.83;;;15.73;;
6564;SDS011;3316;44.118;27.258;2023-02-15T01:58:24;32.63;;;16.10;;
6564;SDS011;3316;44.118;27.258;2023-02-15T02:00:52;29.00;;;15.67;;
6564;SDS011;3316;44.118;27.258;2023-02-15T02:03:25;30.93;;;15.07;;
6564;SDS011;3316;44.118;27.258;2023-02-15T02:06:03;27.43;;;14.10;;
6564;SDS011;3316;44.118;27.258;2023-02-15T02:08:29;26.73;;;15.40;;
6564;SDS011;3316;44.118;27.258;2023-02-15T02:10:55;29.03;;;16.37;;
6564;SDS011;3316;44.118;27.258;2023-02-15T02:13:21;28.57;;;15.57;;
6564;SDS011;3316;44.118;27.258;2023-02-15T02:15:54;29.87;;;16.07;;
6564;SDS011;3316;44.118;27.258;2023-02-15T02:37:02;36.77;;;18.87;;
6564;SDS011;3316;44.118;27.258;2023-02-15T02:39:51;34.20;;;19.27;;
6564;SDS011;3316;44.118;27.258;2023-02-15T02:42:42;34.20;;;17.87;;
6564;SDS011;3316;44.118;27.258;2023-02-15T02:45:20;32.93;;;18.43;;
6564;SDS011;3316;44.118;27.258;2023-02-15T02:47:52;40.60;;;19.90;;
6564;SDS011;3316;44.118;27.258;2023-02-15T02:50:26;34.00;;;18.17;;
6564;SDS011;3316;44.118;27.258;2023-02-15T02:52:54;36.50;;;19.47;;
6564;SDS011;3316;44.118;27.258;2023-02-15T03:01:34;36.33;;;18.27;;
6564;SDS011;3316;44.118;27.258;2023-02-15T03:04:17;36.70;;;20.00;;
6564;SDS011;3316;44.118;27.258;2023-02-15T03:07:04;34.47;;;17.87;;
6564;SDS011;3316;44.118;27.258;2023-02-15T03:09:37;34.33;;;19.00;;
6564;SDS011;3316;44.118;27.258;2023-02-15T03:14:55;31.53;;;17.73;;
6564;SDS011;3316;44.118;27.258;2023-02-15T03:17:29;34.70;;;17.67;;
6564;SDS011;3316;44.118;27.258;2023-02-15T03:19:59;34.87;;;17.07;;
6564;SDS011;3316;44.118;27.258;2023-02-15T03:22:36;30.67;;;16.90;;
6564;SDS011;3316;44.118;27.258;2023-02-15T03:27:33;26.77;;;15.80;;
6564;SDS011;3316;44.118;27.258;2023-02-15T03:30:03;25.40;;;15.53;;
6564;SDS011;3316;44.118;27.258;2023-02-15T03:32:30;31.37;;;15.47;;
6564;SDS011;3316;44.118;27.258;2023-02-15T03:34:58;27.67;;;15.60;;
6564;SDS011;3316;44.118;27.258;2023-02-15T03:40:30;26.87;;;15.00;;
6564;SDS011;3316;44.118;27.258;2023-02-15T03:46:11;26.07;;;13.37;;
6564;SDS011;3316;44.118;27.258;2023-02-15T03:48:46;21.63;;;11.93;;
6564;SDS011;3316;44.118;27.258;2023-02-15T03:51:18;20.63;;;11.80;;
6564;SDS011;3316;44.118;27.258;2023-02-15T03:54:10;26.47;;;12.30;;
6564;SDS011;3316;44.118;27.258;2023-02-15T03:57:02;20.03;;;12.17;;
6564;SDS011;3316;44.118;27.258;2023-02-15T03:59:47;21.93;;;11.67;;
6564;SDS011;3316;44.118;27.258;2023-02-15T04:02:34;24.33;;;12.90;;
6564;SDS011;3316;44.118;27.258;2023-02-15T04:05:11;24.43;;;13.00;;
6564;SDS011;3316;44.118;27.258;2023-02-15T04:07:36;27.97;;;14.47;;
6564;SDS011;3316;44.118;27.258;2023-02-15T04:10:01;31.13;;;15.90;;
6564;SDS011;3316;44.118;27.258;2023-02-15T04:12:45;25.63;;;14.60;;
6564;SDS011;3316;44.118;27.258;2023-02-15T04:15:11;25.57;;;13.20;;
6564;SDS011;3316;44.118;27.258;2023-02-15T04:17:56;26.63;;;13.30;;
6564;SDS011;3316;44.118;27.258;2023-02-15T04:20:22;25.50;;;13.77;;
6564;SDS011;3316;44.118;27.258;2023-02-15T04:23:06;22.90;;;13.10;;
6564;SDS011;3316;44.118;27.258;2023-02-15T04:25:51;25.70;;;13.53;;
6564;SDS011;3316;44.118;27.258;2023-02-15T04:28:16;27.20;;;15.30;;
6564;SDS011;3316;44.118;27.258;2023-02-15T04:30:41;28.70;;;15.40;;
6564;SDS011;3316;44.118;27.258;2023-02-15T04:33:07;35.27;;;16.67;;
6564;SDS011;3316;44.118;27.258;2023-02-15T04:35:32;37.63;;;18.07;;
6564;SDS011;3316;44.118;27.258;2023-02-15T04:37:58;35.50;;;19.77;;
6564;SDS011;3316;44.118;27.258;2023-02-15T04:40:24;34.37;;;18.37;;
6564;SDS011;3316;44.118;27.258;2023-02-15T04:42:49;37.13;;;19.17;;
6564;SDS011;3316;44.118;27.258;2023-02-15T04:45:15;33.37;;;17.63;;
6564;SDS011;3316;44.118;27.258;2023-02-15T04:47:40;31.57;;;17.77;;
6564;SDS011;3316;44.118;27.258;2023-02-15T04:50:06;34.50;;;17.93;;
6564;SDS011;3316;44.118;27.258;2023-02-15T04:52:32;35.63;;;18.57;;
6564;SDS011;3316;44.118;27.258;2023-02-15T04:54:57;37.03;;;18.80;;
6564;SDS011;3316;44.118;27.258;2023-02-15T04:57:23;40.03;;;20.17;;
6564;SDS011;3316;44.118;27.258;2023-02-15T04:59:48;43.17;;;22.07;;
6564;SDS011;3316;44.118;27.258;2023-02-15T05:02:14;48.37;;;22.47;;
6564;SDS011;3316;44.118;27.258;2023-02-15T05:04:39;41.83;;;23.50;;
6564;SDS011;3316;44.118;27.258;2023-02-15T05:07:04;42.70;;;23.13;;
6564;SDS011;3316;44.118;27.258;2023-02-15T05:09:30;48.70;;;24.07;;
6564;SDS011;3316;44.118;27.258;2023-02-15T05:11:55;60.57;;;29.67;;
6564;SDS011;3316;44.118;27.258;2023-02-15T05:14:21;78.43;;;34.90;;
6564;SDS011;3316;44.118;27.258;2023-02-15T05:16:47;57.40;;;28.70;;
6564;SDS011;3316;44.118;27.258;2023-02-15T05:19:13;64.90;;;31.07;;
6564;SDS011;3316;44.118;27.258;2023-02-15T05:21:38;48.97;;;24.00;;
6564;SDS011;3316;44.118;27.258;2023-02-15T05:24:05;44.53;;;23.10;;
6564;SDS011;3316;44.118;27.258;2023-02-15T05:26:50;44.03;;;21.67;;
6564;SDS011;3316;44.118;27.258;2023-02-15T05:29:34;38.30;;;20.67;;
6564;SDS011;3316;44.118;27.258;2023-02-15T05:31:59;43.43;;;22.30;;
6564;SDS011;3316;44.118;27.258;2023-02-15T05:34:25;45.33;;;21.53;;
6564;SDS011;3316;44.118;27.258;2023-02-15T05:36:50;46.90;;;22.77;;
6564;SDS011;3316;44.118;27.258;2023-02-15T05:39:16;44.53;;;22.93;;
6564;SDS011;3316;44.118;27.258;2023-02-15T05:41:41;42.10;;;21.87;;
6564;SDS011;3316;44.118;27.258;2023-02-15T05:44:07;122.10;;;46.83;;
6564;SDS011;3316;44.118;27.258;2023-02-15T05:46:32;91.17;;;38.10;;
6564;SDS011;3316;44.118;27.258;2023-02-15T05:48:58;71.67;;;31.20;;
6564;SDS011;3316;44.118;27.258;2023-02-15T05:51:23;58.43;;;27.83;;
6564;SDS011;3316;44.118;27.258;2023-02-15T05:53:48;47.40;;;24.50;;
6564;SDS011;3316;44.118;27.258;2023-02-15T05:56:33;54.19;;;27.08;;
6564;SDS011;3316;44.118;27.258;2023-02-15T05:58:58;56.93;;;30.07;;
6564;SDS011;3316;44.118;27.258;2023-02-15T06:01:24;66.07;;;33.13;;
6564;SDS011;3316;44.118;27.258;2023-02-15T06:03:50;79.67;;;35.37;;
6564;SDS011;3316;44.118;27.258;2023-02-15T06:06:15;57.20;;;31.93;;
6564;SDS011;3316;44.118;27.258;2023-02-15T06:08:41;63.83;;;31.57;;
6564;SDS011;3316;44.118;27.258;2023-02-15T06:11:07;71.23;;;30.40;;
6564;SDS011;3316;44.118;27.258;2023-02-15T06:13:33;46.63;;;25.60;;
6564;SDS011;3316;44.118;27.258;2023-02-15T06:15:59;44.50;;;24.33;;
6564;SDS011;3316;44.118;27.258;2023-02-15T06:18:24;144.90;;;54.23;;
6564;SDS011;3316;44.118;27.258;2023-02-15T06:20:50;250.63;;;80.20;;
6564;SDS011;3316;44.118;27.258;2023-02-15T06:23:15;192.83;;;65.80;;
6564;SDS011;3316;44.118;27.258;2023-02-15T06:25:41;129.90;;;46.57;;
6564;SDS011;3316;44.118;27.258;2023-02-15T06:28:07;93.20;;;44.33;;
6564;SDS011;3316;44.118;27.258;2023-02-15T06:30:32;160.53;;;67.07;;
6564;SDS011;3316;44.118;27.258;2023-02-15T06:32:58;87.03;;;44.73;;
6564;SDS011;3316;44.118;27.258;2023-02-15T06:35:23;106.77;;;43.93;;
6564;SDS011;3316;44.118;27.258;2023-02-15T06:37:49;110.80;;;46.10;;
6564;SDS011;3316;44.118;27.258;2023-02-15T06:40:15;68.53;;;33.47;;
6564;SDS011;3316;44.118;27.258;2023-02-15T06:42:41;102.70;;;43.90;;
6564;SDS011;3316;44.118;27.258;2023-02-15T06:45:07;79.23;;;39.83;;
6564;SDS011;3316;44.118;27.258;2023-02-15T06:47:34;80.17;;;42.13;;
6564;SDS011;3316;44.118;27.258;2023-02-15T06:49:59;76.90;;;37.57;;
6564;SDS011;3316;44.118;27.258;2023-02-15T06:52:25;70.70;;;36.33;;
6564;SDS011;3316;44.118;27.258;2023-02-15T06:54:50;85.80;;;43.60;;
6564;SDS011;3316;44.118;27.258;2023-02-15T06:57:16;51.93;;;28.17;;
6564;SDS011;3316;44.118;27.258;2023-02-15T06:59:41;76.73;;;41.97;;
6564;SDS011;3316;44.118;27.258;2023-02-15T07:02:08;72.17;;;35.37;;
6564;SDS011;3316;44.118;27.258;2023-02-15T07:04:34;66.63;;;38.83;;
6564;SDS011;3316;44.118;27.258;2023-02-15T07:06:59;77.17;;;37.20;;
6564;SDS011;3316;44.118;27.258;2023-02-15T07:09:25;138.80;;;58.87;;
6564;SDS011;3316;44.118;27.258;2023-02-15T07:11:51;72.80;;;34.97;;
6564;SDS011;3316;44.118;27.258;2023-02-15T07:14:35;60.90;;;30.83;;
6564;SDS011;3316;44.118;27.258;2023-02-15T07:17:00;61.03;;;33.53;;
6564;SDS011;3316;44.118;27.258;2023-02-15T07:19:26;40.60;;;25.20;;
6564;SDS011;3316;44.118;27.258;2023-02-15T07:21:51;168.50;;;78.40;;
6564;SDS011;3316;44.118;27.258;2023-02-15T07:24:17;93.13;;;50.17;;
6564;SDS011;3316;44.118;27.258;2023-02-15T07:26:42;109.87;;;57.10;;
6564;SDS011;3316;44.118;27.258;2023-02-15T07:29:08;49.77;;;28.77;;
6564;SDS011;3316;44.118;27.258;2023-02-15T07:31:33;43.83;;;24.20;;
6564;SDS011;3316;44.118;27.258;2023-02-15T07:33:58;39.40;;;24.50;;
6564;SDS011;3316;44.118;27.258;2023-02-15T07:36:24;44.27;;;27.27;;
6564;SDS011;3316;44.118;27.258;2023-02-15T07:38:49;48.47;;;28.13;;
6564;SDS011;3316;44.118;27.258;2023-02-15T07:41:15;54.67;;;32.10;;
6564;SDS011;3316;44.118;27.258;2023-02-15T07:43:41;54.83;;;31.33;;
6564;SDS011;3316;44.118;27.258;2023-02-15T07:46:10;50.13;;;26.73;;
6564;SDS011;3316;44.118;27.258;2023-02-15T07:48:38;40.40;;;22.40;;
6564;SDS011;3316;44.118;27.258;2023-02-15T07:51:05;41.80;;;24.60;;
6564;SDS011;3316;44.118;27.258;2023-02-15T07:53:32;34.97;;;22.07;;
6564;SDS011;3316;44.118;27.258;2023-02-15T07:55:59;44.90;;;25.93;;
6564;SDS011;3316;44.118;27.258;2023-02-15T07:58:25;91.13;;;42.20;;
6564;SDS011;3316;44.118;27.258;2023-02-15T08:01:10;82.97;;;38.23;;
6564;SDS011;3316;44.118;27.258;2023-02-15T08:03:37;73.73;;;37.17;;
6564;SDS011;3316;44.118;27.258;2023-02-15T08:06:03;43.43;;;25.00;;
6564;SDS011;3316;44.118;27.258;2023-02-15T08:08:29;37.10;;;21.17;;
6564;SDS011;3316;44.118;27.258;2023-02-15T08:11:03;40.03;;;21.70;;
6564;SDS011;3316;44.118;27.258;2023-02-15T08:13:50;35.37;;;21.57;;
6564;SDS011;3316;44.118;27.258;2023-02-15T08:16:40;56.30;;;27.00;;
6564;SDS011;3316;44.118;27.258;2023-02-15T08:21:49;33.37;;;20.83;;
6564;SDS011;3316;44.118;27.258;2023-02-15T08:24:18;40.00;;;24.37;;
6564;SDS011;3316;44.118;27.258;2023-02-15T08:26:45;47.17;;;28.70;;
6564;SDS011;3316;44.118;27.258;2023-02-15T08:29:13;46.03;;;27.13;;
6564;SDS011;3316;44.118;27.258;2023-02-15T08:31:40;45.38;;;27.13;;
6564;SDS011;3316;44.118;27.258;2023-02-15T08:34:06;38.37;;;21.73;;
6564;SDS011;3316;44.118;27.258;2023-02-15T08:36:33;48.67;;;27.92;;
6564;SDS011;3316;44.118;27.258;2023-02-15T08:38:59;95.50;;;47.42;;
6564;SDS011;3316;44.118;27.258;2023-02-15T08:41:27;113.70;;;51.57;;
6564;SDS011;3316;44.118;27.258;2023-02-15T08:43:56;71.33;;;38.53;;
6564;SDS011;3316;44.118;27.258;2023-02-15T08:46:23;76.57;;;41.27;;
6564;SDS011;3316;44.118;27.258;2023-02-15T08:48:50;53.73;;;32.03;;
6564;SDS011;3316;44.118;27.258;2023-02-15T08:51:18;37.57;;;24.97;;
6564;SDS011;3316;44.118;27.258;2023-02-15T08:53:46;45.80;;;25.83;;
6564;SDS011;3316;44.118;27.258;2023-02-15T08:56:15;76.17;;;42.03;;
6564;SDS011;3316;44.118;27.258;2023-02-15T08:58:42;69.60;;;40.17;;
6564;SDS011;3316;44.118;27.258;2023-02-15T09:01:13;43.07;;;25.50;;
6564;SDS011;3316;44.118;27.258;2023-02-15T09:03:43;39.80;;;24.13;;
6564;SDS011;3316;44.118;27.258;2023-02-15T09:06:10;40.43;;;22.57;;
6564;SDS011;3316;44.118;27.258;2023-02-15T09:08:36;37.87;;;22.03;;
6564;SDS011;3316;44.118;27.258;2023-02-15T09:11:21;32.83;;;20.83;;
6564;SDS011;3316;44.118;27.258;2023-02-15T09:13:58;48.63;;;26.33;;
6564;SDS011;3316;44.118;27.258;2023-02-15T09:16:26;35.07;;;22.40;;
6564;SDS011;3316;44.118;27.258;2023-02-15T09:18:54;44.67;;;24.87;;
6564;SDS011;3316;44.118;27.258;2023-02-15T09:21:23;40.83;;;23.63;;
6564;SDS011;3316;44.118;27.258;2023-02-15T09:23:50;62.57;;;36.10;;
6564;SDS011;3316;44.118;27.258;2023-02-15T09:26:20;46.80;;;27.17;;
6564;SDS011;3316;44.118;27.258;2023-02-15T09:28:47;46.97;;;26.33;;
6564;SDS011;3316;44.118;27.258;2023-02-15T09:31:17;66.03;;;32.40;;
6564;SDS011;3316;44.118;27.258;2023-02-15T09:33:45;51.63;;;29.70;;
6564;SDS011;3316;44.118;27.258;2023-02-15T09:45:03;40.57;;;22.10;;
6564;SDS011;3316;44.118;27.258;2023-02-15T09:57:30;28.30;;;18.87;;
6564;SDS011;3316;44.118;27.258;2023-02-15T10:00:11;29.17;;;17.77;;
6564;SDS011;3316;44.118;27.258;2023-02-15T10:19:35;43.60;;;23.03;;
6564;SDS011;3316;44.118;27.258;2023-02-15T10:27:51;53.57;;;27.50;;
6564;SDS011;3316;44.118;27.258;2023-02-15T10:32:52;21.80;;;14.67;;
6564;SDS011;3316;44.118;27.258;2023-02-15T10:51:47;32.80;;;17.03;;
6564;SDS011;3316;44.118;27.258;2023-02-15T11:07:49;35.70;;;18.27;;
6564;SDS011;3316;44.118;27.258;2023-02-15T11:10:32;31.43;;;18.07;;
6564;SDS011;3316;44.118;27.258;2023-02-15T11:13:09;58.03;;;28.33;;
6564;SDS011;3316;44.118;27.258;2023-02-15T11:23:43;33.80;;;18.80;;
6564;SDS011;3316;44.118;27.258;2023-02-15T11:26:21;33.53;;;16.83;;
6564;SDS011;3316;44.118;27.258;2023-02-15T11:28:56;30.20;;;17.63;;
6564;SDS011;3316;44.118;27.258;2023-02-15T11:31:27;45.00;;;22.80;;
6564;SDS011;3316;44.118;27.258;2023-02-15T11:34:02;59.53;;;29.23;;
6564;SDS011;3316;44.118;27.258;2023-02-15T11:36:37;31.40;;;17.97;;
6564;SDS011;3316;44.118;27.258;2023-02-15T11:39:09;31.27;;;17.17;;
6564;SDS011;3316;44.118;27.258;2023-02-15T11:41:40;52.57;;;23.60;;
6564;SDS011;3316;44.118;27.258;2023-02-15T11:44:14;98.47;;;41.23;;
6564;SDS011;3316;44.118;27.258;2023-02-15T11:46:44;27.30;;;16.07;;
6564;SDS011;3316;44.118;27.258;2023-02-15T11:49:20;29.50;;;17.13;;
6564;SDS011;3316;44.118;27.258;2023-02-15T11:51:46;28.13;;;16.17;;
6564;SDS011;3316;44.118;27.258;2023-02-15T11:54:11;28.47;;;16.30;;
6564;SDS011;3316;44.118;27.258;2023-02-15T11:56:37;27.43;;;15.47;;
6564;SDS011;3316;44.118;27.258;2023-02-15T11:59:14;23.67;;;14.47;;
6564;SDS011;3316;44.118;27.258;2023-02-15T12:01:49;25.13;;;14.83;;
6564;SDS011;3316;44.118;27.258;2023-02-15T12:04:24;24.50;;;14.17;;
6564;SDS011;3316;44.118;27.258;2023-02-15T12:09:48;24.03;;;14.73;;
6564;SDS011;3316;44.118;27.258;2023-02-15T12:12:42;19.20;;;12.53;;
6564;SDS011;3316;44.118;27.258;2023-02-15T12:15:09;20.77;;;12.30;;
6564;SDS011;3316;44.118;27.258;2023-02-15T12:17:50;20.40;;;12.40;;
6564;SDS011;3316;44.118;27.258;2023-02-15T12:22:46;19.10;;;11.87;;
6564;SDS011;3316;44.118;27.258;2023-02-15T12:25:23;20.37;;;12.03;;
6564;SDS011;3316;44.118;27.258;2023-02-15T12:27:49;23.37;;;13.30;;
6564;SDS011;3316;44.118;27.258;2023-02-15T12:30:19;18.43;;;12.27;;
6564;SDS011;3316;44.118;27.258;2023-02-15T12:32:51;20.30;;;11.80;;
6564;SDS011;3316;44.118;27.258;2023-02-15T12:35:27;21.30;;;11.90;;
6564;SDS011;3316;44.118;27.258;2023-02-15T12:37:56;19.43;;;11.93;;
6564;SDS011;3316;44.118;27.258;2023-02-15T12:40:27;26.13;;;12.83;;
6564;SDS011;3316;44.118;27.258;2023-02-15T12:42:54;22.97;;;13.53;;
6564;SDS011;3316;44.118;27.258;2023-02-15T12:48:09;22.00;;;12.90;;
6564;SDS011;3316;44.118;27.258;2023-02-15T12:50:41;18.70;;;11.50;;
6564;SDS011;3316;44.118;27.258;2023-02-15T12:53:21;19.37;;;11.63;;
6564;SDS011;3316;44.118;27.258;2023-02-15T12:55:52;19.70;;;10.97;;
6564;SDS011;3316;44.118;27.258;2023-02-15T12:58:41;19.20;;;12.10;;
6564;SDS011;3316;44.118;27.258;2023-02-15T13:01:17;18.87;;;11.80;;
6564;SDS011;3316;44.118;27.258;2023-02-15T13:06:27;14.87;;;9.57;;
6564;SDS011;3316;44.118;27.258;2023-02-15T13:09:05;17.17;;;10.30;;
6564;SDS011;3316;44.118;27.258;2023-02-15T13:11:41;16.97;;;9.77;;
6564;SDS011;3316;44.118;27.258;2023-02-15T13:16:40;19.10;;;10.40;;
6564;SDS011;3316;44.118;27.258;2023-02-15T13:21:44;19.97;;;12.53;;
6564;SDS011;3316;44.118;27.258;2023-02-15T13:24:23;17.50;;;11.00;;
6564;SDS011;3316;44.118;27.258;2023-02-15T13:26:50;17.77;;;11.20;;
6564;SDS011;3316;44.118;27.258;2023-02-15T13:29:33;26.63;;;13.93;;
6564;SDS011;3316;44.118;27.258;2023-02-15T13:32:23;19.00;;;11.40;;
6564;SDS011;3316;44.118;27.258;2023-02-15T13:34:57;40.07;;;17.93;;
6564;SDS011;3316;44.118;27.258;2023-02-15T13:40:08;22.73;;;14.83;;
6564;SDS011;3316;44.118;27.258;2023-02-15T14:21:03;26.63;;;15.50;;
6564;SDS011;3316;44.118;27.258;2023-02-15T14:23:58;30.90;;;16.33;;
6564;SDS011;3316;44.118;27.258;2023-02-15T14:31:57;25.80;;;15.23;;
6564;SDS011;3316;44.118;27.258;2023-02-15T14:37:13;32.97;;;18.43;;
6564;SDS011;3316;44.118;27.258;2023-02-15T14:39:51;41.57;;;21.53;;
6564;SDS011;3316;44.118;27.258;2023-02-15T14:45:18;33.10;;;18.90;;
6564;SDS011;3316;44.118;27.258;2023-02-15T14:48:36;33.90;;;19.77;;
6564;SDS011;3316;44.118;27.258;2023-02-15T14:50:46;48.20;;;22.47;;
6564;SDS011;3316;44.118;27.258;2023-02-15T15:01:28;38.30;;;20.33;;
6564;SDS011;3316;44.118;27.258;2023-02-15T15:04:06;36.80;;;19.70;;
6564;SDS011;3316;44.118;27.258;2023-02-15T15:06:39;47.63;;;24.67;;
6564;SDS011;3316;44.118;27.258;2023-02-15T15:09:25;44.17;;;22.33;;
6564;SDS011;3316;44.118;27.258;2023-02-15T15:11:53;37.80;;;21.67;;
6564;SDS011;3316;44.118;27.258;2023-02-15T15:16:57;43.60;;;22.57;;
6564;SDS011;3316;44.118;27.258;2023-02-15T15:22:25;36.13;;;20.77;;
6564;SDS011;3316;44.118;27.258;2023-02-15T15:25:02;41.10;;;22.33;;
6564;SDS011;3316;44.118;27.258;2023-02-15T15:27:48;41.47;;;23.43;;
6564;SDS011;3316;44.118;27.258;2023-02-15T15:32:56;49.97;;;26.87;;
6564;SDS011;3316;44.118;27.258;2023-02-15T15:49:49;62.90;;;29.50;;
6564;SDS011;3316;44.118;27.258;2023-02-15T15:52:20;67.47;;;30.43;;
6564;SDS011;3316;44.118;27.258;2023-02-15T15:54:48;72.30;;;34.80;;
6564;SDS011;3316;44.118;27.258;2023-02-15T15:59:58;93.97;;;43.47;;
6564;SDS011;3316;44.118;27.258;2023-02-15T16:02:24;83.53;;;41.53;;
6564;SDS011;3316;44.118;27.258;2023-02-15T16:04:50;93.30;;;44.20;;
6564;SDS011;3316;44.118;27.258;2023-02-15T16:09:41;108.47;;;48.13;;
6564;SDS011;3316;44.118;27.258;2023-02-15T16:12:18;118.60;;;51.23;;
6564;SDS011;3316;44.118;27.258;2023-02-15T16:14:44;79.97;;;39.17;;
6564;SDS011;3316;44.118;27.258;2023-02-15T16:17:25;71.67;;;36.03;;
6564;SDS011;3316;44.118;27.258;2023-02-15T16:20:06;75.63;;;40.27;;
6564;SDS011;3316;44.118;27.258;2023-02-15T16:22:39;73.13;;;32.03;;
6564;SDS011;3316;44.118;27.258;2023-02-15T16:27:51;81.43;;;39.83;;
6564;SDS011;3316;44.118;27.258;2023-02-15T16:32:47;80.13;;;38.17;;
6564;SDS011;3316;44.118;27.258;2023-02-15T16:35:17;80.33;;;39.43;;
6564;SDS011;3316;44.118;27.258;2023-02-15T16:37:44;88.50;;;42.00;;
6564;SDS011;3316;44.118;27.258;2023-02-15T16:40:34;96.37;;;45.60;;
6564;SDS011;3316;44.118;27.258;2023-02-15T16:43:16;102.17;;;48.93;;
6564;SDS011;3316;44.118;27.258;2023-02-15T16:45:47;110.00;;;50.53;;
6564;SDS011;3316;44.118;27.258;2023-02-15T16:48:14;83.93;;;42.33;;
6564;SDS011;3316;44.118;27.258;2023-02-15T16:50:49;70.30;;;34.97;;
6564;SDS011;3316;44.118;27.258;2023-02-15T16:53:20;58.67;;;30.77;;
6564;SDS011;3316;44.118;27.258;2023-02-15T16:55:51;51.40;;;25.10;;
6564;SDS011;3316;44.118;27.258;2023-02-15T16:58:23;60.37;;;27.40;;
6564;SDS011;3316;44.118;27.258;2023-02-15T17:00:59;44.00;;;20.43;;
6564;SDS011;3316;44.118;27.258;2023-02-15T17:03:27;46.27;;;21.40;;
6564;SDS011;3316;44.118;27.258;2023-02-15T17:06:03;47.40;;;23.17;;
6564;SDS011;3316;44.118;27.258;2023-02-15T17:08:42;42.90;;;22.77;;
6564;SDS011;3316;44.118;27.258;2023-02-15T17:11:16;46.53;;;22.33;;
6564;SDS011;3316;44.118;27.258;2023-02-15T17:14:29;48.20;;;22.83;;
6564;SDS011;3316;44.118;27.258;2023-02-15T17:19:51;53.63;;;27.33;;
6564;SDS011;3316;44.118;27.258;2023-02-15T17:22:21;55.43;;;26.83;;
6564;SDS011;3316;44.118;27.258;2023-02-15T17:24:49;44.33;;;22.63;;
6564;SDS011;3316;44.118;27.258;2023-02-15T17:27:25;48.90;;;23.90;;
6564;SDS011;3316;44.118;27.258;2023-02-15T17:29:55;73.23;;;31.03;;
6564;SDS011;3316;44.118;27.258;2023-02-15T17:32:24;45.93;;;24.33;;
6564;SDS011;3316;44.118;27.258;2023-02-15T17:37:47;43.63;;;22.27;;
6564;SDS011;3316;44.118;27.258;2023-02-15T17:42:49;64.50;;;31.60;;
6564;SDS011;3316;44.118;27.258;2023-02-15T17:45:15;88.00;;;39.97;;
6564;SDS011;3316;44.118;27.258;2023-02-15T17:47:41;61.37;;;31.10;;
6564;SDS011;3316;44.118;27.258;2023-02-15T17:50:07;49.60;;;26.33;;
6564;SDS011;3316;44.118;27.258;2023-02-15T17:52:40;46.73;;;24.10;;
6564;SDS011;3316;44.118;27.258;2023-02-15T17:55:11;41.37;;;21.93;;
6564;SDS011;3316;44.118;27.258;2023-02-15T17:57:57;43.50;;;22.20;;
6564;SDS011;3316;44.118;27.258;2023-02-15T18:00:23;46.77;;;22.37;;
6564;SDS011;3316;44.118;27.258;2023-02-15T18:03:08;46.07;;;23.83;;
6564;SDS011;3316;44.118;27.258;2023-02-15T18:05:54;43.53;;;22.73;;
6564;SDS011;3316;44.118;27.258;2023-02-15T18:08:40;43.43;;;23.50;;
6564;SDS011;3316;44.118;27.258;2023-02-15T18:11:24;48.00;;;24.83;;
6564;SDS011;3316;44.118;27.258;2023-02-15T18:14:02;55.40;;;28.10;;
6564;SDS011;3316;44.118;27.258;2023-02-15T18:16:33;42.27;;;23.60;;
6564;SDS011;3316;44.118;27.258;2023-02-15T18:19:02;53.90;;;26.33;;
6564;SDS011;3316;44.118;27.258;2023-02-15T18:21:29;45.40;;;25.10;;
6564;SDS011;3316;44.118;27.258;2023-02-15T18:23:56;45.67;;;22.90;;
6564;SDS011;3316;44.118;27.258;2023-02-15T18:26:22;51.30;;;24.77;;
6564;SDS011;3316;44.118;27.258;2023-02-15T18:28:49;54.33;;;27.40;;
6564;SDS011;3316;44.118;27.258;2023-02-15T18:31:16;73.73;;;32.87;;
6564;SDS011;3316;44.118;27.258;2023-02-15T18:33:44;59.33;;;31.43;;
6564;SDS011;3316;44.118;27.258;2023-02-15T18:36:33;57.93;;;29.40;;
6564;SDS011;3316;44.118;27.258;2023-02-15T18:39:01;74.43;;;33.47;;
6564;SDS011;3316;44.118;27.258;2023-02-15T18:41:27;82.37;;;38.00;;
6564;SDS011;3316;44.118;27.258;2023-02-15T18:43:53;129.57;;;60.83;;
6564;SDS011;3316;44.118;27.258;2023-02-15T18:46:19;93.10;;;46.23;;
6564;SDS011;3316;44.118;27.258;2023-02-15T18:48:45;83.70;;;39.53;;
6564;SDS011;3316;44.118;27.258;2023-02-15T18:51:20;65.07;;;30.70;;
6564;SDS011;3316;44.118;27.258;2023-02-15T18:53:48;54.67;;;27.83;;
6564;SDS011;3316;44.118;27.258;2023-02-15T18:56:16;81.33;;;37.07;;
6564;SDS011;3316;44.118;27.258;2023-02-15T18:58:44;60.87;;;30.23;;
6564;SDS011;3316;44.118;27.258;2023-02-15T19:01:12;76.23;;;35.20;;